Time;durP1;ratioP1;P1;durP2;ratioP2;P2;SDS_P1;SDS_P2;PMS_P1;PMS_P2;Temp;Humidity;BMP_temperature;BMP_pressure;BME280_temperature;BME280_humidity;BME280_pressure;Samples;Min_cycle;Max_cycle;Signal;HPM_P1;HPM_P2
2022/03/18 00:02:03;;;;;;;;;;;;;;;3.81;97.48;101702.44;6242808;23;20038;-81
2022/03/18 00:04:29;;;;;;;;;;;;;;;3.72;98.10;101706.13;6216970;23;19930;-90
2022/03/18 00:06:54;;;;;;;;;;;;;;;3.70;97.48;101707.63;6243661;23;19916;-81
2022/03/18 00:09:19;;;;;;;;;;;;;;;3.51;98.74;101708.31;6243756;23;20330;-81
2022/03/18 00:11:45;;;;;;;;;;;;;;;3.47;98.69;101704.66;6243076;23;19942;-81
2022/03/18 00:14:11;;;;;;;;;;;;;;;3.38;98.60;101695.78;6242496;23;19938;-81
2022/03/18 00:16:36;;;;;;;;;;;;;;;3.30;99.36;101699.44;6242556;23;19990;-81
2022/03/18 00:19:02;;;;;;;;;;;;;;;3.34;98.10;101702.28;6243738;23;19924;-81
2022/03/18 00:21:27;;;;;;;;;;;;;;;3.33;97.56;101704.22;6242279;23;19965;-81
2022/03/18 00:23:53;;;;;;;;;;;;;;;3.23;99.04;101699.25;6243568;23;20341;-81
2022/03/18 00:26:18;;;;;;;;;;;;;;;3.17;97.95;101704.16;6243769;23;19943;-81
2022/03/18 00:28:44;;;;;;;;;;;;;;;3.05;98.96;101695.16;6216560;23;19915;-81
2022/03/18 00:31:09;;;;;;;;;;;;;;;3.00;99.04;101700.88;6243714;23;20222;-81
2022/03/18 00:33:35;;;;;;;;;;;;;;;2.95;99.63;101703.88;6243696;23;19911;-81
2022/03/18 00:36:01;;;;;;;;;;;;;;;2.95;100.00;101701.13;6244351;23;19923;-81
2022/03/18 00:38:27;;;;;;;;;;;;;;;3.00;100.00;101698.13;6243835;23;20353;-81
2022/03/18 00:40:54;;;;;;;;;;;;;;;2.98;100.00;101706.72;6243780;23;19922;-81
2022/03/18 00:43:19;;;;;;;;;;;;;;;2.97;100.00;101707.06;6216633;23;19943;-88
2022/03/18 00:45:45;;;;;;;;;;;;;;;2.93;100.00;101711.63;6243898;23;19961;-89
2022/03/18 00:53:38;;;;;;;;;;;;;;;2.94;99.23;101718.72;6243063;23;19938;-90
2022/03/18 00:56:03;;;;;;;;;;;;;;;2.90;98.91;101712.31;6243791;23;19916;-90
2022/03/18 00:58:29;;;;;;;;;;;;;;;2.76;100.00;101718.16;6243004;23;19920;-89
2022/03/18 01:00:55;;;;;;;;;;;;;;;2.65;100.00;101717.81;6241742;23;19915;-81
2022/03/18 01:03:20;;;;;;;;;;;;;;;2.63;100.00;101720.09;6242702;23;20038;-81
2022/03/18 01:05:46;;;;;;;;;;;;;;;2.66;100.00;101719.44;6243316;23;20334;-81
2022/03/18 01:08:11;;;;;;;;;;;;;;;2.64;99.70;101715.41;6243357;23;19919;-81
2022/03/18 01:10:36;;;;;;;;;;;;;;;2.62;99.43;101707.56;6243380;23;19918;-81
2022/03/18 01:13:02;;;;;;;;;;;;;;;2.52;100.00;101718.97;6243457;23;19919;-81
2022/03/18 01:15:28;;;;;;;;;;;;;;;2.44;99.92;101708.09;6243411;23;20356;-81
2022/03/18 01:17:53;;;;;;;;;;;;;;;2.40;99.30;101713.47;6240776;23;19915;-90
2022/03/18 01:20:19;;;;;;;;;;;;;;;2.37;98.89;101705.94;6242602;23;20285;-81
2022/03/18 01:22:44;;;;;;;;;;;;;;;2.29;98.81;101704.91;6242490;23;19990;-81
2022/03/18 01:25:09;;;;;;;;;;;;;;;2.31;99.22;101710.03;6243308;23;19961;-81
2022/03/18 01:27:35;;;;;;;;;;;;;;;2.38;98.48;101712.22;6242445;23;20397;-81
2022/03/18 01:30:00;;;;;;;;;;;;;;;2.39;98.71;101714.59;6240891;23;19998;-81
2022/03/18 01:32:25;;;;;;;;;;;;;;;2.48;100.00;101712.56;6243276;23;19912;-81
2022/03/18 01:34:51;;;;;;;;;;;;;;;2.58;100.00;101714.88;6242756;23;19922;-81
2022/03/18 01:37:17;;;;;;;;;;;;;;;2.59;100.00;101713.69;6190241;23;19915;-81
2022/03/18 01:39:42;;;;;;;;;;;;;;;2.51;100.00;101720.09;6243691;23;19919;-81
2022/03/18 01:42:07;;;;;;;;;;;;;;;2.49;100.00;101716.09;6244720;23;19915;-81
2022/03/18 01:44:42;;;;;;;;;;;;;;;2.43;100.00;101715.53;6244495;23;19911;-81
2022/03/18 01:47:11;;;;;;;;;;;;;;;2.40;100.00;101721.69;6218263;23;19915;-81
2022/03/18 01:49:37;;;;;;;;;;;;;;;2.35;100.00;101717.22;6243687;23;20223;-81
2022/03/18 01:52:02;;;;;;;;;;;;;;;2.35;100.00;101721.91;6218523;23;19955;-82
2022/03/18 01:57:12;;;;;;;;;;;;;;;2.41;100.00;101733.44;6245016;23;19935;-81
2022/03/18 01:59:38;;;;;;;;;;;;;;;2.38;100.00;101734.94;6244280;23;20396;-81
2022/03/18 02:02:04;;;;;;;;;;;;;;;2.37;100.00;101735.25;6243812;23;19924;-81
2022/03/18 02:04:29;;;;;;;;;;;;;;;2.36;100.00;101737.19;6244931;23;19954;-81
2022/03/18 02:06:55;;;;;;;;;;;;;;;2.33;100.00;101743.38;6216811;23;19920;-81
2022/03/18 02:09:20;;;;;;;;;;;;;;;2.34;99.37;101755.94;6243790;23;19946;-81
2022/03/18 02:11:45;;;;;;;;;;;;;;;2.33;98.77;101751.59;6243568;23;20357;-81
2022/03/18 02:14:11;;;;;;;;;;;;;;;2.36;98.23;101748.16;6244455;23;19958;-81
2022/03/18 02:16:39;;;;;;;;;;;;;;;2.35;97.48;101754.75;6244411;23;20363;-81
2022/03/18 02:19:04;;;;;;;;;;;;;;;2.32;97.88;101753.50;6243292;23;19970;-81
2022/03/18 02:21:30;;;;;;;;;;;;;;;2.30;98.59;101760.47;6242853;23;19912;-81
2022/03/18 02:23:56;;;;;;;;;;;;;;;2.28;99.56;101746.31;6217754;23;20238;-81
2022/03/18 02:26:21;;;;;;;;;;;;;;;2.37;99.01;101760.72;6244618;23;19962;-81
2022/03/18 02:28:47;;;;;;;;;;;;;;;2.35;99.90;101761.03;6244413;23;19916;-81
2022/03/18 02:31:12;;;;;;;;;;;;;;;2.43;100.00;101762.09;6244441;23;19951;-81
2022/03/18 02:33:38;;;;;;;;;;;;;;;2.48;99.64;101761.88;6244188;23;19943;-81
2022/03/18 02:36:03;;;;;;;;;;;;;;;2.51;100.00;101761.19;6244568;23;19938;-81
2022/03/18 02:38:31;;;;;;;;;;;;;;;2.52;100.00;101751.03;6244267;23;19918;-81
2022/03/18 02:40:56;;;;;;;;;;;;;;;2.52;100.00;101770.19;6244629;23;19926;-81
2022/03/18 02:43:22;;;;;;;;;;;;;;;2.53;100.00;101764.38;6244507;23;19939;-81
2022/03/18 02:45:47;;;;;;;;;;;;;;;2.56;100.00;101768.38;6243984;23;19920;-81
2022/03/18 02:48:12;;;;;;;;;;;;;;;2.52;100.00;101762.78;6243297;23;19922;-82
2022/03/18 02:50:38;;;;;;;;;;;;;;;2.52;100.00;101764.72;6243878;23;19987;-81
2022/03/18 02:53:03;;;;;;;;;;;;;;;2.53;100.00;101763.59;6244044;23;19916;-81
2022/03/18 02:55:29;;;;;;;;;;;;;;;2.52;99.82;101760.03;6243635;23;19916;-81
2022/03/18 02:57:54;;;;;;;;;;;;;;;2.50;99.65;101776.03;6243351;23;19920;-81
2022/03/18 03:00:25;;;;;;;;;;;;;;;2.47;99.60;101773.94;6244712;23;19947;-81
2022/03/18 03:02:50;;;;;;;;;;;;;;;2.44;99.35;101776.56;6243311;23;19935;-81
2022/03/18 03:08:00;;;;;;;;;;;;;;;2.37;98.75;101779.88;6243418;23;19926;-81
2022/03/18 03:10:32;;;;;;;;;;;;;;;2.33;99.00;101779.78;6243942;23;19912;-81
2022/03/18 03:12:59;;;;;;;;;;;;;;;2.36;99.42;101789.22;6217062;23;19923;-81
2022/03/18 03:15:24;;;;;;;;;;;;;;;2.32;99.61;101780.09;6244083;23;19912;-81
2022/03/18 03:17:50;;;;;;;;;;;;;;;2.26;100.00;101792.41;6243587;23;19954;-81
2022/03/18 03:20:15;;;;;;;;;;;;;;;2.24;100.00;101789.19;6244200;23;20356;-81
2022/03/18 03:22:41;;;;;;;;;;;;;;;2.19;100.00;101792.94;6243922;23;19919;-81
2022/03/18 03:25:06;;;;;;;;;;;;;;;2.19;100.00;101800.34;6244136;23;19915;-81
2022/03/18 03:27:32;;;;;;;;;;;;;;;2.19;100.00;101792.16;6243960;23;20002;-81
2022/03/18 03:29:58;;;;;;;;;;;;;;;2.14;100.00;101806.06;6217062;23;19915;-81
2022/03/18 03:32:23;;;;;;;;;;;;;;;2.12;100.00;101808.31;6243955;23;19916;-81
2022/03/18 03:34:48;;;;;;;;;;;;;;;2.15;99.24;101807.66;6243798;23;20379;-81
2022/03/18 03:37:14;;;;;;;;;;;;;;;2.08;98.67;101810.13;6243350;23;20317;-81
2022/03/18 03:39:39;;;;;;;;;;;;;;;2.00;99.11;101819.22;6244220;23;20253;-81
2022/03/18 03:42:05;;;;;;;;;;;;;;;1.97;98.71;101822.66;6215941;23;20246;-81
2022/03/18 03:44:30;;;;;;;;;;;;;;;1.88;99.77;101819.97;6243762;23;19927;-81
2022/03/18 03:46:55;;;;;;;;;;;;;;;1.90;99.37;101825.94;6243862;23;19923;-81
2022/03/18 03:49:21;;;;;;;;;;;;;;;1.87;99.83;101834.78;6243766;23;19926;-81
2022/03/18 03:51:46;;;;;;;;;;;;;;;1.86;99.40;101834.00;6242326;23;19923;-81
2022/03/18 03:54:12;;;;;;;;;;;;;;;1.83;99.65;101840.13;6243606;23;20341;-81
2022/03/18 03:56:37;;;;;;;;;;;;;;;1.86;99.34;101839.47;6242612;23;20276;-81
2022/03/18 03:59:02;;;;;;;;;;;;;;;1.90;99.59;101849.75;6244091;23;19916;-81
2022/03/18 04:01:28;;;;;;;;;;;;;;;1.87;99.89;101852.00;6243136;23;19916;-81
2022/03/18 04:03:54;;;;;;;;;;;;;;;1.87;100.00;101856.69;6243657;23;19916;-81
2022/03/18 04:06:20;;;;;;;;;;;;;;;1.89;100.00;101854.44;6243076;23;19947;-82
2022/03/18 04:08:46;;;;;;;;;;;;;;;1.88;100.00;101856.34;6243177;23;19989;-81
2022/03/18 04:11:11;;;;;;;;;;;;;;;1.93;100.00;101862.75;6243481;23;20373;-81
2022/03/18 04:13:37;;;;;;;;;;;;;;;1.76;100.00;101834.41;6243554;23;19912;-81
2022/03/18 04:16:02;;;;;;;;;;;;;;;1.94;100.00;101869.84;6243155;23;19916;-81
2022/03/18 04:18:27;;;;;;;;;;;;;;;1.94;100.00;101872.59;6243302;23;19919;-81
2022/03/18 04:20:53;;;;;;;;;;;;;;;1.97;100.00;101871.91;6243669;23;19915;-81
2022/03/18 04:23:18;;;;;;;;;;;;;;;1.99;100.00;101875.09;6216874;23;20373;-81
2022/03/18 04:25:44;;;;;;;;;;;;;;;2.01;100.00;101884.59;6243608;23;19958;-82
2022/03/18 04:28:09;;;;;;;;;;;;;;;2.11;100.00;101877.91;6243653;23;20340;-81
2022/03/18 04:30:35;;;;;;;;;;;;;;;2.12;100.00;101884.97;6243841;23;19915;-81
2022/03/18 04:33:00;;;;;;;;;;;;;;;2.15;100.00;101889.78;6243346;23;20258;-81
2022/03/18 04:35:26;;;;;;;;;;;;;;;2.20;100.00;101886.84;6243429;23;19916;-81
2022/03/18 04:37:52;;;;;;;;;;;;;;;2.21;100.00;101894.72;6243334;23;19926;-82
2022/03/18 04:40:17;;;;;;;;;;;;;;;2.23;100.00;101897.91;6243806;23;19915;-81
2022/03/18 04:42:44;;;;;;;;;;;;;;;2.25;100.00;101900.34;6241819;23;19946;-81
2022/03/18 04:45:10;;;;;;;;;;;;;;;2.30;100.00;101906.41;6243009;23;19966;-82
2022/03/18 04:47:35;;;;;;;;;;;;;;;2.31;100.00;101910.72;6216246;23;20254;-81
2022/03/18 04:50:01;;;;;;;;;;;;;;;2.35;100.00;101905.38;6242428;23;20381;-81
2022/03/18 04:52:26;;;;;;;;;;;;;;;2.35;100.00;101919.88;6216643;23;19923;-81
2022/03/18 04:54:52;;;;;;;;;;;;;;;2.35;100.00;101930.03;6243646;23;19919;-81
2022/03/18 04:57:20;;;;;;;;;;;;;;;2.36;100.00;101928.91;6243467;23;20034;-81
2022/03/18 04:59:51;;;;;;;;;;;;;;;2.35;100.00;101936.31;6242672;23;19916;-90
2022/03/18 05:02:16;;;;;;;;;;;;;;;2.35;100.00;101935.50;6242657;23;19920;-91
2022/03/18 05:04:42;;;;;;;;;;;;;;;2.31;100.00;101937.31;6242990;23;19927;-90
2022/03/18 05:07:08;;;;;;;;;;;;;;;2.29;100.00;101945.06;6243523;23;19942;-89
2022/03/18 05:09:33;;;;;;;;;;;;;;;2.25;100.00;101947.69;6243587;23;19930;-90
2022/03/18 05:11:59;;;;;;;;;;;;;;;2.26;100.00;101945.75;6242967;23;19950;-91
2022/03/18 05:14:24;;;;;;;;;;;;;;;2.29;100.00;101950.56;6244575;23;19911;-91
2022/03/18 05:16:52;;;;;;;;;;;;;;;2.33;100.00;101956.97;6244954;23;19922;-91
2022/03/18 05:19:17;;;;;;;;;;;;;;;2.33;100.00;101957.78;6218773;23;19947;-92
2022/03/18 05:21:43;;;;;;;;;;;;;;;2.39;100.00;101960.31;6242007;23;19916;-92
2022/03/18 05:24:08;;;;;;;;;;;;;;;2.41;100.00;101958.84;6241897;23;19938;-92
2022/03/18 05:26:34;;;;;;;;;;;;;;;2.39;100.00;101963.06;6242538;23;19994;-93
2022/03/18 05:28:59;;;;;;;;;;;;;;;2.38;100.00;101966.91;6243197;23;20293;-91
2022/03/18 05:31:26;;;;;;;;;;;;;;;2.31;100.00;101961.97;6213828;23;19935;-91
2022/03/18 05:33:51;;;;;;;;;;;;;;;2.33;100.00;101965.19;6240681;23;19922;-91
2022/03/18 05:36:16;;;;;;;;;;;;;;;2.33;100.00;101967.91;6239824;23;19916;-91
2022/03/18 05:38:42;;;;;;;;;;;;;;;2.37;100.00;101971.59;6187696;23;20338;-90
2022/03/18 05:41:09;;;;;;;;;;;;;;;2.30;100.00;101982.28;6240099;23;19919;-89
2022/03/18 05:43:34;;;;;;;;;;;;;;;2.25;100.00;101983.28;6239696;23;20310;-91
2022/03/18 05:46:00;;;;;;;;;;;;;;;2.28;100.00;101987.28;6240726;23;19961;-90
2022/03/18 05:48:25;;;;;;;;;;;;;;;2.29;100.00;101988.88;6239514;23;19916;-91
2022/03/18 05:50:51;;;;;;;;;;;;;;;2.32;100.00;101989.03;6212409;23;19964;-90
2022/03/18 05:53:17;;;;;;;;;;;;;;;2.37;100.00;101990.75;6236787;23;19977;-90
2022/03/18 05:58:27;;;;;;;;;;;;;;;2.49;100.00;101998.25;6190111;23;20293;-82
2022/03/18 06:00:53;;;;;;;;;;;;;;;2.55;100.00;101992.22;6241457;23;19916;-82
2022/03/18 06:03:18;;;;;;;;;;;;;;;2.62;100.00;102000.72;6216544;23;20440;-82
2022/03/18 06:05:44;;;;;;;;;;;;;;;2.68;100.00;102002.09;6216217;23;19919;-82
2022/03/18 06:13:38;;;;;;;;;;;;;;;2.91;100.00;102009.97;6242779;23;19996;-82
2022/03/18 06:16:03;;;;;;;;;;;;;;;2.99;100.00;102004.41;6243914;23;19915;-82
2022/03/18 06:18:29;;;;;;;;;;;;;;;3.04;100.00;102008.84;6211996;23;19927;-81
2022/03/18 06:20:55;;;;;;;;;;;;;;;3.07;100.00;102010.94;6241441;23;19915;-82
2022/03/18 06:23:20;;;;;;;;;;;;;;;3.12;100.00;102024.41;6240672;23;20002;-81
2022/03/18 06:25:46;;;;;;;;;;;;;;;3.18;100.00;102012.09;6188219;23;19943;-80
2022/03/18 06:28:12;;;;;;;;;;;;;;;3.24;100.00;102027.19;6240142;23;19920;-81
2022/03/18 06:30:37;;;;;;;;;;;;;;;3.28;100.00;102025.34;6241212;23;19970;-83
2022/03/18 06:33:04;;;;;;;;;;;;;;;3.34;100.00;102029.50;6242517;23;19912;-83
2022/03/18 06:35:29;;;;;;;;;;;;;;;3.38;100.00;102029.63;6213799;23;19938;-83
2022/03/18 06:37:55;;;;;;;;;;;;;;;3.45;100.00;102030.66;6239291;23;19939;-83
2022/03/18 06:40:21;;;;;;;;;;;;;;;3.46;100.00;102032.28;6238986;23;19926;-83
2022/03/18 06:42:46;;;;;;;;;;;;;;;3.53;100.00;102028.94;6238687;23;20338;-83
2022/03/18 06:45:12;;;;;;;;;;;;;;;3.52;100.00;102030.88;6242073;23;19934;-83
2022/03/18 06:47:37;;;;;;;;;;;;;;;3.62;100.00;102035.16;6240574;23;19911;-83
2022/03/18 06:50:02;;;;;;;;;;;;;;;3.72;100.00;102034.72;6216758;23;20235;-91
2022/03/18 06:52:28;;;;;;;;;;;;;;;3.82;100.00;102039.72;6243463;23;19919;-91
2022/03/18 06:54:55;;;;;;;;;;;;;;;3.88;100.00;102021.09;6239936;23;19922;-92
2022/03/18 06:57:21;;;;;;;;;;;;;;;3.92;100.00;102039.28;6242546;23;19916;-91
2022/03/18 06:59:46;;;;;;;;;;;;;;;3.96;100.00;102042.16;6243473;23;20249;-91
2022/03/18 07:02:13;;;;;;;;;;;;;;;3.98;100.00;102037.09;6240708;23;19919;-89
2022/03/18 07:04:38;;;;;;;;;;;;;;;4.08;100.00;102042.16;6246074;23;19945;-95
2022/03/18 08:27:00;;;;;;;;;;;;;;;5.66;90.94;102138.69;6243914;23;19935;-86
2022/03/18 08:29:26;;;;;;;;;;;;;;;5.84;90.57;102145.47;6217181;23;19919;-86
2022/03/18 08:31:51;;;;;;;;;;;;;;;5.92;89.57;102150.03;6243727;23;19923;-86
2022/03/18 08:34:17;;;;;;;;;;;;;;;5.72;88.85;102148.28;6244050;23;19946;-86
2022/03/18 08:36:42;;;;;;;;;;;;;;;5.70;88.29;102150.59;6217541;23;19942;-86
2022/03/18 08:39:07;;;;;;;;;;;;;;;5.79;88.01;102147.66;6243758;23;19922;-86
2022/03/18 08:41:33;;;;;;;;;;;;;;;5.75;87.40;102149.53;6244504;23;20441;-86
2022/03/18 08:43:58;;;;;;;;;;;;;;;5.56;87.40;102156.53;6243794;23;20010;-86
2022/03/18 08:46:24;;;;;;;;;;;;;;;5.60;88.17;102167.63;6217721;23;19922;-86
2022/03/18 08:48:49;;;;;;;;;;;;;;;5.74;87.81;102162.53;6218343;23;19916;-86
2022/03/18 08:51:15;;;;;;;;;;;;;;;6.05;86.37;102168.09;6219164;23;20448;-86
2022/03/18 08:53:40;;;;;;;;;;;;;;;6.28;85.73;102165.50;6219425;23;20257;-86
2022/03/18 08:56:06;;;;;;;;;;;;;;;6.43;84.22;102175.72;6218989;23;19922;-86
2022/03/18 08:58:31;;;;;;;;;;;;;;;6.34;83.78;102174.31;6194085;23;20293;-87
2022/03/18 09:00:57;;;;;;;;;;;;;;;6.26;84.27;102181.59;6246014;23;19943;-87
2022/03/18 09:03:22;;;;;;;;;;;;;;;6.21;84.09;102187.38;6219228;23;19919;-87
2022/03/18 09:05:47;;;;;;;;;;;;;;;6.10;83.60;102186.31;6246139;23;19916;-86
2022/03/18 09:08:14;;;;;;;;;;;;;;;6.26;84.36;102184.38;6245614;23;20227;-87
2022/03/18 09:10:40;;;;;;;;;;;;;;;6.32;83.43;102187.63;6246229;23;19912;-86
2022/03/18 09:13:06;;;;;;;;;;;;;;;6.34;84.06;102188.09;6193637;23;20643;-86
2022/03/18 09:15:31;;;;;;;;;;;;;;;6.24;84.44;102191.38;6246239;23;19931;-86
2022/03/18 09:17:57;;;;;;;;;;;;;;;6.13;84.75;102196.63;6245548;23;19919;-87
2022/03/18 09:20:22;;;;;;;;;;;;;;;5.91;85.21;102194.44;6194170;23;20253;-86
2022/03/18 09:22:48;;;;;;;;;;;;;;;6.07;85.65;102192.50;6219160;23;19908;-89
2022/03/18 09:25:14;;;;;;;;;;;;;;;6.28;84.74;102190.31;6218385;23;19943;-87
2022/03/18 09:27:40;;;;;;;;;;;;;;;6.41;83.76;102197.34;6245884;23;19930;-87
2022/03/18 09:30:06;;;;;;;;;;;;;;;6.20;84.74;102196.78;6218425;23;19919;-86
2022/03/18 09:32:31;;;;;;;;;;;;;;;6.11;85.50;102198.13;6194242;23;19921;-86
2022/03/18 09:34:57;;;;;;;;;;;;;;;6.13;86.78;102202.13;6218741;23;19949;-94
2022/03/18 09:37:22;;;;;;;;;;;;;;;6.26;85.97;102206.41;6246310;23;19920;-88
2022/03/18 09:39:48;;;;;;;;;;;;;;;6.50;84.84;102203.47;6193921;23;19922;-86
2022/03/18 09:42:13;;;;;;;;;;;;;;;6.75;83.96;102206.03;6218738;23;19946;-87
2022/03/18 09:44:40;;;;;;;;;;;;;;;6.81;83.12;102205.38;6218800;23;19915;-86
2022/03/18 09:47:09;;;;;;;;;;;;;;;7.02;82.19;102208.63;6193835;23;20260;-86
2022/03/18 09:49:34;;;;;;;;;;;;;;;6.91;81.56;102201.28;6193624;23;20261;-86
2022/03/18 09:52:00;;;;;;;;;;;;;;;6.89;81.87;102203.56;6245585;23;19998;-86
2022/03/18 09:54:26;;;;;;;;;;;;;;;6.87;81.59;102208.69;6218307;23;19989;-86
2022/03/18 09:56:52;;;;;;;;;;;;;;;7.02;81.83;102211.38;6218489;23;19919;-87
2022/03/18 09:59:19;;;;;;;;;;;;;;;7.16;81.02;102205.38;6217741;23;19919;-86
2022/03/18 10:01:45;;;;;;;;;;;;;;;7.31;79.62;102210.06;6218385;23;19915;-87
2022/03/18 10:04:11;;;;;;;;;;;;;;;7.31;79.74;102212.00;6218077;23;19922;-87
2022/03/18 10:06:37;;;;;;;;;;;;;;;7.43;79.18;102220.16;6219079;23;19950;-86
2022/03/18 10:09:04;;;;;;;;;;;;;;;7.32;79.96;102219.91;6244668;23;19949;-86
2022/03/18 10:11:31;;;;;;;;;;;;;;;7.35;79.04;102204.59;6219103;23;19955;-86
2022/03/18 10:14:07;;;;;;;;;;;;;;;7.35;79.37;102219.22;6244813;23;19970;-87
2022/03/18 10:16:33;;;;;;;;;;;;;;;7.35;79.00;102227.50;6245434;23;20254;-86
2022/03/18 10:18:58;;;;;;;;;;;;;;;7.44;80.11;102227.28;6244865;23;19916;-86
2022/03/18 10:21:25;;;;;;;;;;;;;;;7.50;78.32;102232.16;6245130;23;19916;-86
2022/03/18 10:24:02;;;;;;;;;;;;;;;7.43;78.89;102234.75;6218430;23;20314;-86
2022/03/18 10:26:28;;;;;;;;;;;;;;;7.66;78.51;102231.25;6217891;23;19919;-86
2022/03/18 10:28:58;;;;;;;;;;;;;;;7.49;77.76;102238.81;6217855;23;20398;-86
2022/03/18 10:31:25;;;;;;;;;;;;;;;7.41;78.47;102234.31;6218953;23;20257;-86
2022/03/18 10:37:12;;;;;;;;;;;;;;;7.97;76.31;102222.78;6223973;23;19916;-94
2022/03/18 10:39:37;;;;;;;;;;;;;;;7.82;76.62;102237.50;6222910;23;19915;-94
2022/03/18 10:42:04;;;;;;;;;;;;;;;7.87;76.51;102238.03;6245952;23;19919;-91
2022/03/18 10:44:41;;;;;;;;;;;;;;;7.98;75.32;102241.78;6245377;23;19919;-95
2022/03/18 10:47:06;;;;;;;;;;;;;;;8.35;74.45;102238.53;6219256;23;19923;-94
2022/03/18 10:49:32;;;;;;;;;;;;;;;8.35;73.63;102236.56;6194008;23;20253;-93
2022/03/18 10:52:07;;;;;;;;;;;;;;;8.40;73.50;102244.56;6246364;23;19922;-94
2022/03/18 10:54:34;;;;;;;;;;;;;;;8.47;72.84;102235.56;6219524;23;19916;-95
2022/03/18 10:56:59;;;;;;;;;;;;;;;8.56;72.11;102243.63;6193931;23;20302;-94
2022/03/18 10:59:27;;;;;;;;;;;;;;;8.84;72.27;102233.81;6245734;23;19930;-94
2022/03/18 11:01:56;;;;;;;;;;;;;;;8.83;69.61;102232.22;6194667;23;19957;-93
2022/03/18 11:04:26;;;;;;;;;;;;;;;9.01;69.74;102231.69;6245999;23;19912;-93
2022/03/18 11:12:31;;;;;;;;;;;;;;;9.30;66.65;102217.06;6221671;23;19915;-92
2022/03/18 11:14:57;;;;;;;;;;;;;;;9.20;66.00;102229.59;6218055;23;19926;-93
2022/03/18 11:17:23;;;;;;;;;;;;;;;9.19;65.77;102239.06;6192674;23;19912;-93
2022/03/18 11:19:48;;;;;;;;;;;;;;;9.11;65.64;102231.81;6191793;23;20249;-94
2022/03/18 11:22:15;;;;;;;;;;;;;;;9.28;65.38;102230.47;6218566;23;19986;-94
2022/03/18 11:24:40;;;;;;;;;;;;;;;8.85;63.30;102218.81;6242610;23;19990;-92
2022/03/18 11:27:06;;;;;;;;;;;;;;;8.80;63.90;102227.44;6216532;23;19947;-93
2022/03/18 11:29:33;;;;;;;;;;;;;;;9.03;63.80;102221.81;6243668;23;20584;-96
2022/03/18 11:32:12;;;;;;;;;;;;;;;9.11;62.99;102226.28;6243426;23;20006;-93
2022/03/18 11:34:46;;;;;;;;;;;;;;;9.23;62.95;102228.84;6243514;23;19990;-94
2022/03/18 11:37:12;;;;;;;;;;;;;;;9.21;62.40;102222.88;6216530;23;19919;-94
2022/03/18 11:39:38;;;;;;;;;;;;;;;9.50;61.99;102220.50;6243736;23;20285;-92
2022/03/18 11:42:16;;;;;;;;;;;;;;;9.27;61.52;102224.13;6242560;23;19951;-92
2022/03/18 11:44:42;;;;;;;;;;;;;;;8.88;61.94;102228.34;6242685;23;19934;-92
2022/03/18 11:47:38;;;;;;;;;;;;;;;8.76;63.00;102225.78;6242736;23;19916;-93
2022/03/18 11:50:23;;;;;;;;;;;;;;;8.75;63.40;102224.16;6239345;23;20018;-93
2022/03/18 11:52:57;;;;;;;;;;;;;;;8.77;62.87;102221.84;6243067;23;19937;-94
2022/03/18 11:55:23;;;;;;;;;;;;;;;8.77;62.97;102216.31;6244108;23;19916;-93
2022/03/18 11:57:48;;;;;;;;;;;;;;;8.89;62.83;102207.78;6244226;23;19946;-92
2022/03/18 12:00:41;;;;;;;;;;;;;;;9.13;62.24;102210.13;6243749;23;19915;-94
2022/03/18 12:03:06;;;;;;;;;;;;;;;9.30;62.25;102200.44;6225025;23;19916;-91
2022/03/18 12:05:32;;;;;;;;;;;;;;;9.38;62.88;102202.91;6241154;23;20001;-91
2022/03/18 12:07:59;;;;;;;;;;;;;;;9.54;62.19;102196.41;6243019;23;20026;-93
2022/03/18 12:10:39;;;;;;;;;;;;;;;9.71;61.76;102204.09;6215148;23;19920;-93
2022/03/18 12:13:05;;;;;;;;;;;;;;;9.43;62.37;102193.47;6218698;23;19927;-93
2022/03/18 12:15:32;;;;;;;;;;;;;;;9.46;62.64;102197.47;6218007;23;19919;-94
2022/03/18 12:17:58;;;;;;;;;;;;;;;9.57;63.06;102192.88;6217376;23;19920;-94
2022/03/18 12:20:29;;;;;;;;;;;;;;;9.60;62.90;102186.56;6218264;23;19926;-93
2022/03/18 12:22:55;;;;;;;;;;;;;;;9.57;63.43;102187.31;6218001;23;20219;-93
2022/03/18 12:25:22;;;;;;;;;;;;;;;9.63;62.89;102180.25;6217092;23;19926;-93
2022/03/18 12:27:48;;;;;;;;;;;;;;;9.65;62.76;102195.34;6218124;23;19920;-92
2022/03/18 12:30:14;;;;;;;;;;;;;;;9.65;61.75;102189.00;6217357;23;19939;-92
2022/03/18 12:32:48;;;;;;;;;;;;;;;9.73;62.43;102179.59;6242117;23;19977;-92
2022/03/18 12:35:16;;;;;;;;;;;;;;;9.85;62.18;102179.31;6243594;23;19922;-92
2022/03/18 12:38:10;;;;;;;;;;;;;;;9.80;62.48;102174.13;6202414;23;19923;-93
2022/03/18 12:40:36;;;;;;;;;;;;;;;10.06;62.20;102182.31;6241924;23;19930;-85
2022/03/18 12:43:03;;;;;;;;;;;;;;;10.15;60.87;102174.47;6165465;23;19974;-85
2022/03/18 12:45:29;;;;;;;;;;;;;;;10.45;60.37;102166.03;6215611;23;20381;-86
2022/03/18 12:47:56;;;;;;;;;;;;;;;10.54;59.63;102168.47;6190618;23;19922;-86
2022/03/18 12:50:32;;;;;;;;;;;;;;;10.87;60.60;102168.31;6214650;23;20334;-86
2022/03/18 12:52:57;;;;;;;;;;;;;;;10.80;56.63;102171.00;6212768;23;19923;-85
2022/03/18 12:55:26;;;;;;;;;;;;;;;10.45;55.77;102165.22;6215838;23;19915;-85
2022/03/18 12:58:04;;;;;;;;;;;;;;;10.35;57.30;102169.53;6193937;23;19920;-85
2022/03/18 13:00:36;;;;;;;;;;;;;;;10.08;57.53;102168.84;6243585;23;19915;-85
2022/03/18 13:03:02;;;;;;;;;;;;;;;10.15;55.62;102163.38;6241729;23;19920;-85
2022/03/18 13:05:27;;;;;;;;;;;;;;;10.61;56.49;102157.41;6216122;23;19911;-85
2022/03/18 13:07:55;;;;;;;;;;;;;;;10.72;55.71;102163.81;6216091;23;19986;-85
2022/03/18 13:10:22;;;;;;;;;;;;;;;10.95;54.85;102156.06;6217505;23;20690;-85
2022/03/18 13:12:48;;;;;;;;;;;;;;;11.08;53.95;102153.75;6216640;23;19939;-86
2022/03/18 13:15:20;;;;;;;;;;;;;;;11.12;52.15;102155.31;6243675;23;19923;-86
2022/03/18 13:17:46;;;;;;;;;;;;;;;10.93;51.65;102154.84;6217975;23;19919;-86
2022/03/18 13:20:24;;;;;;;;;;;;;;;11.18;51.62;102153.78;6166003;23;19912;-85
2022/03/18 13:22:50;;;;;;;;;;;;;;;10.99;50.54;102150.53;6241727;23;19915;-85
2022/03/18 13:25:15;;;;;;;;;;;;;;;10.95;50.69;102146.94;6242857;23;19920;-85
2022/03/18 13:27:41;;;;;;;;;;;;;;;11.33;49.92;102137.16;6191995;23;20356;-85
2022/03/18 13:32:55;;;;;;;;;;;;;;;10.73;50.15;102143.22;6194157;23;19915;-85
2022/03/18 13:35:22;;;;;;;;;;;;;;;10.52;48.91;102151.41;6216881;23;19951;-85
2022/03/18 13:38:07;;;;;;;;;;;;;;;10.38;47.71;102152.09;6218149;23;20429;-85
2022/03/18 13:40:34;;;;;;;;;;;;;;;10.43;49.23;102151.75;6244971;23;19946;-85
2022/03/18 13:43:06;;;;;;;;;;;;;;;10.15;49.11;102151.53;6218001;23;19974;-85
2022/03/18 13:45:31;;;;;;;;;;;;;;;10.32;48.59;102150.06;6218458;23;19919;-85
2022/03/18 13:47:57;;;;;;;;;;;;;;;10.25;49.08;102140.50;6244619;23;19911;-85
2022/03/18 13:50:23;;;;;;;;;;;;;;;9.99;50.60;102143.41;6245302;23;20126;-85
2022/03/18 13:52:48;;;;;;;;;;;;;;;9.94;50.07;102148.53;6218328;23;19986;-93
2022/03/18 13:55:30;;;;;;;;;;;;;;;9.87;50.23;102145.69;6244139;23;19916;-83
2022/03/18 13:57:56;;;;;;;;;;;;;;;10.23;50.62;102142.09;6192629;23;19919;-83
2022/03/18 14:00:28;;;;;;;;;;;;;;;10.40;49.30;102146.94;6243912;23;19920;-83
2022/03/18 14:03:04;;;;;;;;;;;;;;;10.59;49.50;102148.69;6217615;23;19916;-83
2022/03/18 14:05:31;;;;;;;;;;;;;;;10.42;49.86;102147.38;6217960;23;19962;-83
2022/03/18 14:07:57;;;;;;;;;;;;;;;10.49;48.93;102150.19;6244880;23;19942;-83
2022/03/18 14:10:24;;;;;;;;;;;;;;;10.27;49.17;102154.00;6242225;23;19939;-83
2022/03/18 14:12:59;;;;;;;;;;;;;;;10.14;47.68;102156.25;6190402;23;19916;-83
2022/03/18 14:15:30;;;;;;;;;;;;;;;9.99;48.69;102148.94;6243692;23;19920;-83
2022/03/18 14:18:05;;;;;;;;;;;;;;;9.93;49.96;102147.72;6217526;23;20250;-83
2022/03/18 14:20:32;;;;;;;;;;;;;;;9.97;49.36;102154.09;6216281;23;20372;-83
2022/03/18 14:22:58;;;;;;;;;;;;;;;10.10;48.40;102143.53;6243642;23;19998;-83
2022/03/18 14:25:28;;;;;;;;;;;;;;;10.11;47.96;102137.56;6243282;23;20340;-82
2022/03/18 14:27:53;;;;;;;;;;;;;;;9.98;48.06;102147.38;6243493;23;19915;-82
2022/03/18 14:30:22;;;;;;;;;;;;;;;10.14;45.75;102152.66;6243462;23;20334;-91
2022/03/18 14:32:51;;;;;;;;;;;;;;;10.22;45.06;102155.16;6244021;23;20453;-91